Time;durP1;ratioP1;P1;durP2;ratioP2;P2;SDS_P1;SDS_P2;PMS_P1;PMS_P2;Temp;Humidity;BMP_temperature;BMP_pressure;BME280_temperature;BME280_humidity;BME280_pressure;Samples;Min_cycle;Max_cycle;Signal;HPM_P1;HPM_P2
2021/03/03 00:00:16;;;;;;;38.83;17.90;;;1.10;97.30;;;;;;4978011;28;20284;-80
2021/03/03 00:02:42;;;;;;;37.30;18.17;;;1.10;97.30;;;;;;4976869;28;20288;-79
2021/03/03 00:05:09;;;;;;;44.17;20.47;;;1.10;97.30;;;;;;4976378;28;20429;-79
2021/03/03 00:07:34;;;;;;;52.30;22.77;;;1.10;97.30;;;;;;4977882;28;20425;-79
2021/03/03 00:10:00;;;;;;;55.40;22.33;;;1.10;97.30;;;;;;4995239;28;20472;-80
2021/03/03 00:12:26;;;;;;;52.63;21.50;;;1.00;97.30;;;;;;4977628;28;20211;-79
2021/03/03 00:14:51;;;;;;;49.63;20.93;;;1.00;97.30;;;;;;4976806;28;20637;-79
2021/03/03 00:17:17;;;;;;;43.80;21.03;;;1.00;97.30;;;;;;4993515;28;20200;-79
2021/03/03 00:19:42;;;;;;;50.37;21.17;;;0.90;97.30;;;;;;4978484;28;20201;-79
2021/03/03 00:22:08;;;;;;;54.13;25.73;;;0.90;97.30;;;;;;4996586;28;20224;-79
2021/03/03 00:24:34;;;;;;;53.57;22.47;;;0.90;97.30;;;;;;4988767;28;20195;-80
2021/03/03 00:26:59;;;;;;;52.57;23.87;;;0.90;97.30;;;;;;5015323;28;20166;-80
2021/03/03 00:29:25;;;;;;;59.70;23.50;;;0.80;97.30;;;;;;4997597;28;20170;-80
2021/03/03 00:31:50;;;;;;;55.87;24.97;;;0.80;97.30;;;;;;4986985;28;20316;-80
2021/03/03 00:34:16;;;;;;;63.03;24.73;;;0.80;97.30;;;;;;4979452;28;20649;-79
2021/03/03 00:36:41;;;;;;;49.80;22.57;;;0.80;97.30;;;;;;4978710;28;20582;-80
2021/03/03 00:39:07;;;;;;;42.93;21.67;;;0.80;97.30;;;;;;4978746;28;20277;-79
2021/03/03 00:41:33;;;;;;;46.90;21.70;;;0.80;97.30;;;;;;4978294;28;20255;-79
2021/03/03 00:43:59;;;;;;;57.37;24.43;;;0.80;97.30;;;;;;4978541;28;20178;-79
2021/03/03 00:46:25;;;;;;;48.80;21.20;;;0.80;97.30;;;;;;4981968;28;20200;-79
2021/03/03 00:48:50;;;;;;;49.97;21.13;;;0.70;97.30;;;;;;4998479;28;20420;-79
2021/03/03 00:51:16;;;;;;;47.30;21.57;;;0.70;97.30;;;;;;4997805;28;20674;-79
2021/03/03 00:53:44;;;;;;;58.97;24.43;;;0.70;97.30;;;;;;4997916;28;20196;-80
2021/03/03 00:56:10;;;;;;;54.50;22.73;;;0.60;97.30;;;;;;5015480;28;20199;-79
2021/03/03 00:58:36;;;;;;;53.17;23.33;;;0.60;97.30;;;;;;4997945;28;20416;-79
2021/03/03 01:01:01;;;;;;;58.73;23.60;;;0.60;97.30;;;;;;5014815;28;20205;-80
2021/03/03 01:03:27;;;;;;;60.07;23.60;;;0.60;97.30;;;;;;4996997;28;20387;-78
2021/03/03 01:05:52;;;;;;;53.70;23.03;;;0.50;97.30;;;;;;4996697;28;20185;-80
2021/03/03 01:08:18;;;;;;;51.37;21.80;;;0.50;97.30;;;;;;4996305;28;20204;-79
2021/03/03 01:10:44;;;;;;;56.30;21.97;;;0.50;97.30;;;;;;4996050;28;20251;-79
2021/03/03 01:13:09;;;;;;;47.13;21.50;;;0.50;97.30;;;;;;4996033;28;20185;-79
2021/03/03 01:15:35;;;;;;;44.60;20.63;;;0.50;97.30;;;;;;4995525;28;20195;-79
2021/03/03 01:18:00;;;;;;;53.47;22.93;;;0.50;97.30;;;;;;4988773;28;20178;-79
2021/03/03 01:20:28;;;;;;;48.20;20.03;;;0.40;97.30;;;;;;4975832;28;20190;-79
2021/03/03 01:22:54;;;;;;;52.00;21.40;;;0.40;97.30;;;;;;4976722;28;20225;-79
2021/03/03 01:25:19;;;;;;;48.10;20.50;;;0.40;97.30;;;;;;4976268;28;20424;-78
2021/03/03 01:27:45;;;;;;;47.60;20.70;;;0.30;97.30;;;;;;4994015;28;20263;-79
2021/03/03 01:30:11;;;;;;;55.70;21.97;;;0.30;97.30;;;;;;4976132;28;20303;-79
2021/03/03 01:32:42;;;;;;;46.27;20.20;;;0.30;97.30;;;;;;4976195;28;20229;-79
2021/03/03 01:35:09;;;;;;;45.73;20.73;;;0.30;97.30;;;;;;4976168;28;20437;-79
2021/03/03 01:37:34;;;;;;;44.73;20.77;;;0.30;97.30;;;;;;4977143;28;20967;-79
2021/03/03 01:40:06;;;;;;;48.27;21.60;;;0.20;97.30;;;;;;4977242;28;20524;-79
2021/03/03 01:42:31;;;;;;;45.50;21.03;;;0.20;97.30;;;;;;4977505;28;20672;-79
2021/03/03 01:44:57;;;;;;;50.87;20.60;;;0.20;97.30;;;;;;4977015;28;20431;-79
2021/03/03 01:47:23;;;;;;;49.23;18.63;;;0.20;97.30;;;;;;4976935;28;20228;-79
2021/03/03 01:49:48;;;;;;;47.67;19.50;;;0.20;97.30;;;;;;4977134;28;20207;-79
2021/03/03 01:52:16;;;;;;;47.07;19.70;;;0.20;97.30;;;;;;4977193;28;20217;-79
2021/03/03 01:54:42;;;;;;;44.50;20.90;;;0.20;97.30;;;;;;4977311;28;20177;-79
2021/03/03 01:57:11;;;;;;;47.60;20.30;;;0.20;97.30;;;;;;4976905;28;20420;-80
2021/03/03 01:59:36;;;;;;;52.33;20.70;;;0.20;97.30;;;;;;4993696;28;20425;-79
2021/03/03 02:02:03;;;;;;;46.50;20.70;;;0.20;97.30;;;;;;4977276;28;20437;-79
2021/03/03 02:04:29;;;;;;;46.70;21.40;;;0.20;97.30;;;;;;4977279;28;20178;-79
2021/03/03 02:07:33;;;;;;;52.70;22.10;;;0.10;97.30;;;;;;4976650;28;20532;-79
2021/03/03 02:10:08;;;;;;;51.50;21.03;;;0.10;97.30;;;;;;4977061;28;20456;-79
2021/03/03 02:12:43;;;;;;;49.13;21.37;;;0.10;97.30;;;;;;4977063;28;20459;-79
2021/03/03 02:15:10;;;;;;;52.03;20.47;;;0.10;97.30;;;;;;4976985;28;20532;-79
2021/03/03 02:17:39;;;;;;;52.70;22.30;;;0.10;97.30;;;;;;4977187;28;20409;-79
2021/03/03 02:20:09;;;;;;;50.53;21.70;;;0.10;97.30;;;;;;4976657;28;20506;-79
2021/03/03 02:22:54;;;;;;;43.70;19.87;;;0.10;97.30;;;;;;4975945;28;20429;-79
2021/03/03 02:25:25;;;;;;;46.60;20.63;;;0.10;97.30;;;;;;4975760;28;20432;-79
2021/03/03 02:27:52;;;;;;;44.53;19.80;;;0.10;97.30;;;;;;4975685;28;20417;-79
2021/03/03 02:30:19;;;;;;;42.20;18.80;;;0.00;97.30;;;;;;4992777;28;20478;-80
2021/03/03 02:32:46;;;;;;;42.20;19.27;;;0.00;97.30;;;;;;4992336;28;20547;-79
2021/03/03 02:35:13;;;;;;;43.77;19.87;;;0.00;97.30;;;;;;4973841;28;20947;-80
2021/03/03 02:37:40;;;;;;;51.40;22.13;;;-0.10;97.30;;;;;;4991534;28;20915;-79
2021/03/03 02:40:08;;;;;;;46.47;21.00;;;-0.10;97.30;;;;;;4975315;28;20483;-79
2021/03/03 02:42:36;;;;;;;51.40;18.77;;;-0.10;97.30;;;;;;4974652;28;20441;-79
2021/03/03 02:45:07;;;;;;;44.03;19.13;;;-0.10;97.30;;;;;;4974223;28;20432;-79
2021/03/03 02:47:35;;;;;;;43.10;19.83;;;-0.10;97.30;;;;;;4992547;28;20460;-79
2021/03/03 02:50:01;;;;;;;45.03;19.10;;;-0.10;97.30;;;;;;4975233;28;20459;-79
2021/03/03 02:52:27;;;;;;;39.23;17.90;;;0.00;97.30;;;;;;4992673;28;20507;-80
2021/03/03 02:54:54;;;;;;;47.50;19.93;;;0.00;97.30;;;;;;4975553;28;20174;-79
2021/03/03 02:57:23;;;;;;;58.00;21.27;;;0.00;97.30;;;;;;4975972;28;20459;-79
2021/03/03 02:59:55;;;;;;;43.97;18.83;;;-0.10;97.30;;;;;;4976102;28;20423;-78
2021/03/03 03:02:23;;;;;;;43.00;19.53;;;-0.20;97.30;;;;;;4976204;28;20536;-79
2021/03/03 03:05:02;;;;;;;46.03;18.73;;;-0.20;97.30;;;;;;4975903;28;20413;-79
2021/03/03 03:07:29;;;;;;;45.47;19.87;;;-0.30;97.30;;;;;;4976329;28;20479;-79
2021/03/03 03:10:00;;;;;;;48.93;20.20;;;-0.20;97.30;;;;;;4976154;28;20880;-79
2021/03/03 03:12:28;;;;;;;45.93;19.07;;;-0.30;97.30;;;;;;4976096;28;20604;-79
2021/03/03 03:14:55;;;;;;;45.80;19.87;;;-0.20;97.30;;;;;;4976599;28;20425;-79
2021/03/03 03:17:22;;;;;;;47.27;22.03;;;-0.20;97.30;;;;;;4993308;28;20471;-79
2021/03/03 03:19:50;;;;;;;48.70;19.30;;;-0.20;97.30;;;;;;4994025;28;20436;-79
2021/03/03 03:22:18;;;;;;;52.80;22.57;;;-0.30;97.30;;;;;;4976468;28;20456;-79
2021/03/03 03:24:44;;;;;;;40.87;19.83;;;-0.30;97.30;;;;;;4976260;28;20420;-79
2021/03/03 03:27:11;;;;;;;48.70;19.77;;;-0.20;97.30;;;;;;4976892;28;20424;-79
2021/03/03 03:29:38;;;;;;;51.60;20.80;;;-0.20;97.30;;;;;;4994287;28;20507;-79
2021/03/03 03:32:05;;;;;;;45.70;19.83;;;-0.20;97.30;;;;;;4976060;28;20480;-79
2021/03/03 03:34:31;;;;;;;47.73;20.00;;;-0.20;97.30;;;;;;4976215;28;20420;-79
2021/03/03 03:36:57;;;;;;;54.17;21.30;;;-0.20;97.30;;;;;;4975611;28;20417;-79
2021/03/03 03:39:23;;;;;;;51.00;21.83;;;-0.20;97.30;;;;;;4977716;28;20267;-79
2021/03/03 03:41:49;;;;;;;48.50;19.70;;;-0.20;97.30;;;;;;4995839;28;20495;-79
2021/03/03 03:44:16;;;;;;;49.80;21.40;;;-0.20;97.30;;;;;;4978192;28;20265;-79
2021/03/03 03:46:43;;;;;;;54.70;22.17;;;-0.30;97.30;;;;;;4978144;28;20492;-79
2021/03/03 03:49:09;;;;;;;45.50;19.57;;;-0.30;97.30;;;;;;4995189;28;20923;-79
2021/03/03 03:51:39;;;;;;;53.43;23.53;;;-0.30;97.30;;;;;;4977959;28;20561;-79
2021/03/03 03:54:10;;;;;;;54.13;21.90;;;-0.20;97.30;;;;;;4978403;28;20471;-80
2021/03/03 03:56:39;;;;;;;49.83;21.43;;;-0.20;97.30;;;;;;4978073;28;20413;-78
2021/03/03 03:59:04;;;;;;;54.93;20.80;;;-0.20;97.30;;;;;;4978082;28;20417;-79
2021/03/03 04:01:30;;;;;;;45.80;20.20;;;-0.20;97.30;;;;;;4978035;28;20459;-79
2021/03/03 04:03:55;;;;;;;44.17;19.57;;;-0.20;97.30;;;;;;4978356;28;20189;-79
2021/03/03 04:06:21;;;;;;;43.83;19.40;;;-0.20;97.30;;;;;;4979250;28;20178;-80
2021/03/03 04:08:47;;;;;;;46.70;19.23;;;-0.20;97.30;;;;;;4978973;28;20173;-79
2021/03/03 04:11:12;;;;;;;42.50;19.47;;;-0.20;97.30;;;;;;4979276;28;20250;-79
2021/03/03 04:13:38;;;;;;;41.80;18.90;;;-0.20;97.30;;;;;;4977958;28;20555;-79
2021/03/03 04:16:04;;;;;;;42.10;19.40;;;-0.30;97.30;;;;;;4978104;28;20173;-79
2021/03/03 04:18:29;;;;;;;52.00;19.90;;;-0.20;97.30;;;;;;4996504;28;20707;-79
2021/03/03 04:20:57;;;;;;;44.33;18.60;;;-0.30;97.30;;;;;;4978855;28;20487;-79
2021/03/03 04:23:23;;;;;;;51.23;19.17;;;-0.30;97.30;;;;;;4978378;28;20174;-80
2021/03/03 04:25:49;;;;;;;58.67;20.40;;;-0.30;97.30;;;;;;4977412;28;20432;-79
2021/03/03 04:28:14;;;;;;;45.70;18.60;;;-0.30;97.30;;;;;;4979181;28;20805;-79
2021/03/03 04:30:40;;;;;;;44.47;18.67;;;-0.30;97.30;;;;;;4978424;28;20260;-79
2021/03/03 04:33:06;;;;;;;48.07;19.90;;;-0.30;97.30;;;;;;5007119;28;20158;-80
2021/03/03 04:35:31;;;;;;;42.87;18.83;;;-0.30;97.30;;;;;;5014690;28;20672;-79
2021/03/03 04:37:57;;;;;;;42.77;19.63;;;-0.30;97.30;;;;;;4997387;28;20421;-79
2021/03/03 04:40:23;;;;;;;45.00;18.23;;;-0.40;97.30;;;;;;4980728;28;20247;-79
2021/03/03 04:42:48;;;;;;;43.57;19.20;;;-0.40;97.30;;;;;;4979352;28;20679;-79
2021/03/03 04:45:16;;;;;;;49.77;20.90;;;-0.40;97.30;;;;;;4979689;28;20191;-79
2021/03/03 04:47:41;;;;;;;44.40;19.10;;;-0.40;97.30;;;;;;4978279;28;20736;-79
2021/03/03 04:50:09;;;;;;;44.30;20.13;;;-0.40;97.30;;;;;;4994246;28;20549;-79
2021/03/03 04:52:35;;;;;;;44.03;20.37;;;-0.30;97.30;;;;;;4977462;28;20585;-79
2021/03/03 04:55:01;;;;;;;45.60;19.50;;;-0.30;97.30;;;;;;4977699;28;20417;-81
2021/03/03 04:57:26;;;;;;;42.20;18.10;;;-0.20;97.30;;;;;;4977243;28;20512;-79
2021/03/03 04:59:52;;;;;;;42.57;19.60;;;-0.30;97.30;;;;;;4977713;28;20546;-79
2021/03/03 05:02:18;;;;;;;39.73;17.73;;;-0.30;97.30;;;;;;4977299;28;20291;-79
2021/03/03 05:04:45;;;;;;;44.80;18.90;;;-0.40;97.30;;;;;;4994778;28;20701;-80
2021/03/03 05:07:11;;;;;;;44.33;18.73;;;-0.40;97.30;;;;;;4977232;28;20228;-79
2021/03/03 05:09:37;;;;;;;42.63;19.87;;;-0.40;97.30;;;;;;4976869;28;20428;-79
2021/03/03 05:12:03;;;;;;;48.00;19.90;;;-0.40;97.30;;;;;;4994507;28;20437;-80
2021/03/03 05:14:29;;;;;;;44.63;19.67;;;-0.40;97.30;;;;;;4976863;28;20774;-79
2021/03/03 05:16:54;;;;;;;44.60;18.13;;;-0.40;97.30;;;;;;4976513;28;20431;-79
2021/03/03 05:19:20;;;;;;;46.90;18.27;;;-0.40;97.30;;;;;;4977826;28;20197;-79
2021/03/03 05:21:45;;;;;;;39.53;18.77;;;-0.40;97.30;;;;;;4977567;28;20590;-80
2021/03/03 05:24:11;;;;;;;50.83;19.47;;;-0.40;97.30;;;;;;4978049;28;20670;-79
2021/03/03 05:26:37;;;;;;;41.80;17.93;;;-0.40;97.30;;;;;;4977741;28;20734;-79
2021/03/03 05:29:03;;;;;;;39.30;17.60;;;-0.40;97.30;;;;;;4993978;28;20425;-80
2021/03/03 05:31:29;;;;;;;48.43;20.97;;;-0.40;97.30;;;;;;4977403;28;20248;-79
2021/03/03 05:33:54;;;;;;;36.10;16.93;;;-0.50;97.30;;;;;;4976848;28;20589;-79
2021/03/03 05:36:20;;;;;;;41.43;17.93;;;-0.50;97.30;;;;;;4977783;28;20707;-78
2021/03/03 05:38:47;;;;;;;35.50;17.90;;;-0.50;97.30;;;;;;4978009;28;20197;-79
2021/03/03 05:41:13;;;;;;;42.03;20.23;;;-0.50;97.30;;;;;;4977368;28;20285;-79
2021/03/03 05:43:39;;;;;;;42.60;18.30;;;-0.50;97.30;;;;;;4977224;28;20418;-80
2021/03/03 05:46:06;;;;;;;47.00;20.57;;;-0.50;97.30;;;;;;4978192;28;20443;-79
2021/03/03 05:49:00;;;;;;;42.33;18.20;;;-0.50;97.30;;;;;;4977535;28;20417;-79
2021/03/03 05:51:28;;;;;;;40.67;16.50;;;-0.50;97.30;;;;;;4968083;28;20496;-79
2021/03/03 05:53:55;;;;;;;41.57;17.50;;;-0.50;97.30;;;;;;4977508;28;20836;-80
2021/03/03 05:56:24;;;;;;;36.67;16.23;;;-0.50;97.30;;;;;;4977338;28;20926;-79
2021/03/03 05:58:50;;;;;;;39.83;17.27;;;-0.50;97.30;;;;;;4976435;28;20448;-79
2021/03/03 06:01:17;;;;;;;44.07;17.80;;;-0.40;97.30;;;;;;4992065;28;20431;-79
2021/03/03 06:03:45;;;;;;;39.30;17.23;;;-0.40;97.30;;;;;;4975568;28;20793;-79
2021/03/03 06:06:12;;;;;;;33.03;14.60;;;-0.40;97.30;;;;;;4976166;28;20504;-79
2021/03/03 06:08:37;;;;;;;35.57;17.03;;;-0.40;97.30;;;;;;4976140;28;20425;-80
2021/03/03 06:11:04;;;;;;;38.33;17.07;;;-0.50;97.30;;;;;;4993586;28;20567;-80
2021/03/03 06:13:30;;;;;;;40.30;16.07;;;-0.40;97.30;;;;;;4974692;28;20273;-79
2021/03/03 06:15:56;;;;;;;43.27;17.47;;;-0.40;97.30;;;;;;4974619;28;20424;-79
2021/03/03 06:18:24;;;;;;;46.00;17.50;;;-0.40;97.30;;;;;;4975384;28;20405;-80
2021/03/03 06:20:53;;;;;;;38.50;16.07;;;-0.40;97.30;;;;;;4992512;28;20181;-80
2021/03/03 06:23:21;;;;;;;33.07;15.20;;;-0.30;97.30;;;;;;4975286;28;20465;-80
2021/03/03 06:25:49;;;;;;;33.93;15.17;;;-0.30;97.30;;;;;;4975626;28;20474;-80
2021/03/03 06:28:38;;;;;;;36.53;15.93;;;-0.30;97.30;;;;;;4975494;28;20480;-79
2021/03/03 06:31:30;;;;;;;38.30;15.80;;;-0.30;97.30;;;;;;4965338;28;20477;-79
2021/03/03 06:34:18;;;;;;;37.13;15.57;;;-0.20;97.30;;;;;;4975519;28;20443;-79
2021/03/03 06:36:57;;;;;;;39.97;15.50;;;-0.10;97.30;;;;;;4976341;28;20872;-79
2021/03/03 06:39:32;;;;;;;34.17;16.30;;;0.10;97.30;;;;;;4975836;28;20935;-79
2021/03/03 06:42:01;;;;;;;41.73;17.47;;;0.20;97.30;;;;;;4975270;28;20436;-79
2021/03/03 06:44:54;;;;;;;36.13;16.17;;;0.20;97.30;;;;;;4974974;28;20954;-80
2021/03/03 06:47:20;;;;;;;44.47;18.03;;;0.30;97.30;;;;;;4975531;28;20421;-79
2021/03/03 06:49:46;;;;;;;40.33;17.03;;;0.40;97.30;;;;;;4975385;28;20413;-79
2021/03/03 06:52:12;;;;;;;39.13;16.30;;;0.40;97.30;;;;;;4974913;28;20433;-80
2021/03/03 06:54:37;;;;;;;32.53;16.10;;;0.50;97.30;;;;;;4974818;28;20691;-81
2021/03/03 06:57:05;;;;;;;44.73;17.30;;;0.60;97.30;;;;;;4975300;28;20178;-80
2021/03/03 06:59:35;;;;;;;44.13;17.03;;;0.70;97.30;;;;;;4975275;28;20178;-79
2021/03/03 07:02:08;;;;;;;39.87;16.63;;;0.80;97.30;;;;;;4974706;28;20464;-79
2021/03/03 07:04:36;;;;;;;52.33;17.10;;;0.90;97.30;;;;;;4974370;28;20440;-79
2021/03/03 07:07:10;;;;;;;45.70;17.20;;;1.00;97.30;;;;;;4991349;28;20413;-79
2021/03/03 07:09:44;;;;;;;40.43;16.43;;;1.10;97.30;;;;;;4973461;28;20857;-80
2021/03/03 07:12:21;;;;;;;37.47;15.83;;;1.30;97.30;;;;;;4973972;28;20449;-79
2021/03/03 07:15:05;;;;;;;40.80;15.10;;;1.50;97.30;;;;;;4994390;28;20425;-79
2021/03/03 07:17:38;;;;;;;44.17;16.73;;;1.70;97.30;;;;;;4976881;28;20410;-79
2021/03/03 07:20:07;;;;;;;34.00;13.57;;;2.00;97.30;;;;;;4994630;28;20412;-79
2021/03/03 07:22:35;;;;;;;38.17;14.73;;;2.20;97.30;;;;;;4977337;28;20429;-79
2021/03/03 07:25:05;;;;;;;33.87;13.10;;;2.40;97.30;;;;;;4994746;28;20424;-79
2021/03/03 07:27:33;;;;;;;29.37;14.23;;;2.60;97.30;;;;;;4977378;28;21006;-79
2021/03/03 07:30:02;;;;;;;37.23;13.47;;;2.80;97.30;;;;;;4976736;28;20954;-79
2021/03/03 07:32:28;;;;;;;34.23;13.27;;;3.00;97.30;;;;;;4994821;28;20869;-79
2021/03/03 07:34:56;;;;;;;29.50;13.37;;;3.30;97.30;;;;;;4977902;28;20535;-79
2021/03/03 07:37:24;;;;;;;33.60;12.93;;;3.50;97.30;;;;;;4978133;28;20170;-79
2021/03/03 07:40:00;;;;;;;29.27;12.43;;;3.70;97.30;;;;;;4977828;28;20409;-79
2021/03/03 07:42:28;;;;;;;30.07;12.50;;;3.90;97.30;;;;;;4977768;28;20817;-79
2021/03/03 07:44:55;;;;;;;31.23;12.50;;;4.10;97.30;;;;;;4977877;28;20413;-80
2021/03/03 07:47:24;;;;;;;28.93;12.97;;;4.30;97.30;;;;;;4977754;28;20830;-79
2021/03/03 07:49:54;;;;;;;26.20;12.97;;;4.40;97.30;;;;;;4977416;28;20437;-78
2021/03/03 07:52:20;;;;;;;28.90;11.77;;;4.60;97.30;;;;;;4976950;28;20981;-80
2021/03/03 07:54:46;;;;;;;29.40;12.70;;;4.80;97.30;;;;;;4977482;28;20417;-79
2021/03/03 07:57:13;;;;;;;24.10;11.70;;;5.00;97.30;;;;;;4977743;28;20532;-79
2021/03/03 07:59:43;;;;;;;27.90;11.53;;;5.20;97.30;;;;;;4977392;28;20196;-78
2021/03/03 08:02:10;;;;;;;23.60;11.97;;;5.30;97.30;;;;;;4994846;28;21009;-78
2021/03/03 08:04:38;;;;;;;28.60;11.20;;;5.50;97.30;;;;;;4976970;28;20441;-78
2021/03/03 08:07:20;;;;;;;28.80;10.80;;;5.60;97.30;;;;;;4977337;28;20519;-78
2021/03/03 08:10:14;;;;;;;25.43;11.03;;;5.70;97.30;;;;;;4976680;28;20420;-79
2021/03/03 08:13:02;;;;;;;24.07;11.03;;;5.90;97.30;;;;;;4976251;28;20456;-78
2021/03/03 08:15:39;;;;;;;22.90;11.93;;;6.10;97.30;;;;;;4977642;28;20424;-78
2021/03/03 08:18:32;;;;;;;25.67;11.50;;;6.20;97.30;;;;;;4975960;28;20776;-79
2021/03/03 08:21:07;;;;;;;29.13;11.93;;;6.40;97.30;;;;;;4974228;28;20478;-81
2021/03/03 08:23:36;;;;;;;31.27;11.37;;;6.50;97.30;;;;;;4993229;28;20405;-79
2021/03/03 08:26:17;;;;;;;26.33;12.00;;;6.70;97.30;;;;;;4980732;28;20973;-80
2021/03/03 08:28:44;;;;;;;29.90;11.37;;;6.90;97.30;;;;;;5008321;28;20405;-80
2021/03/03 08:31:09;;;;;;;26.43;11.57;;;7.00;97.30;;;;;;5009006;28;20525;-80
2021/03/03 08:33:54;;;;;;;30.00;11.80;;;7.10;97.30;;;;;;4980456;28;20940;-80
2021/03/03 08:36:29;;;;;;;27.10;12.27;;;7.20;97.30;;;;;;4976707;28;20421;-77
2021/03/03 08:38:55;;;;;;;30.47;12.93;;;7.30;97.30;;;;;;4976932;28;20471;-79
2021/03/03 08:41:25;;;;;;;25.13;11.20;;;7.50;97.30;;;;;;4994488;28;21126;-78
2021/03/03 08:44:15;;;;;;;28.33;11.87;;;7.70;95.40;;;;;;4976866;28;20606;-79
2021/03/03 08:46:41;;;;;;;30.73;13.00;;;7.80;95.40;;;;;;4983339;28;20441;-79
2021/03/03 08:49:06;;;;;;;28.13;12.53;;;7.90;95.10;;;;;;5013587;28;20412;-79
2021/03/03 08:51:36;;;;;;;25.20;11.97;;;8.00;94.30;;;;;;4995776;28;20691;-80
2021/03/03 08:54:21;;;;;;;23.10;10.63;;;8.20;94.90;;;;;;4996115;28;20272;-79
2021/03/03 08:56:53;;;;;;;22.20;10.47;;;8.40;94.40;;;;;;4995976;28;20914;-79
2021/03/03 08:59:28;;;;;;;20.37;10.20;;;8.50;93.20;;;;;;4995871;28;20435;-79
2021/03/03 09:02:02;;;;;;;20.33;10.90;;;8.40;92.80;;;;;;4995905;28;20509;-79
2021/03/03 09:04:41;;;;;;;24.67;10.77;;;8.50;92.60;;;;;;4995775;28;20930;-79
2021/03/03 09:07:29;;;;;;;21.00;10.83;;;8.60;92.70;;;;;;5013533;28;20397;-79
2021/03/03 09:09:59;;;;;;;22.53;10.77;;;8.80;92.10;;;;;;4995305;28;20447;-79
2021/03/03 09:12:36;;;;;;;22.70;10.20;;;8.80;92.00;;;;;;4995435;28;20795;-80
2021/03/03 09:15:04;;;;;;;22.60;11.37;;;9.00;92.60;;;;;;4995052;28;20462;-80
2021/03/03 09:17:34;;;;;;;26.30;11.73;;;9.20;92.20;;;;;;4994331;28;20738;-79
2021/03/03 09:20:02;;;;;;;22.10;10.97;;;9.50;92.00;;;;;;4994240;28;21022;-79
2021/03/03 09:22:30;;;;;;;28.17;12.10;;;9.70;91.80;;;;;;4994479;28;20432;-79
2021/03/03 09:25:20;;;;;;;21.43;10.60;;;9.80;90.80;;;;;;5011701;28;20408;-80
2021/03/03 09:27:53;;;;;;;20.53;10.30;;;9.90;90.60;;;;;;5012043;28;20408;-79
2021/03/03 09:30:21;;;;;;;21.27;11.30;;;10.00;90.50;;;;;;4994467;28;20554;-78
2021/03/03 09:32:48;;;;;;;23.00;11.37;;;10.20;90.50;;;;;;4994044;28;20452;-79
2021/03/03 09:35:14;;;;;;;22.63;11.00;;;10.30;90.00;;;;;;4993579;28;20463;-79
2021/03/03 09:37:43;;;;;;;21.50;10.90;;;10.50;89.50;;;;;;4994126;28;20408;-78
2021/03/03 09:40:13;;;;;;;21.43;9.83;;;10.50;88.90;;;;;;5011653;28;20500;-79
2021/03/03 09:42:48;;;;;;;25.47;11.70;;;10.40;89.20;;;;;;4994754;28;20447;-78
2021/03/03 09:45:21;;;;;;;28.00;11.87;;;10.30;89.50;;;;;;4994360;28;20420;-79
2021/03/03 09:47:47;;;;;;;25.53;11.97;;;10.20;89.70;;;;;;4979251;28;20473;-79
2021/03/03 09:50:21;;;;;;;30.53;12.40;;;10.30;90.10;;;;;;4975376;28;20531;-79
2021/03/03 09:52:54;;;;;;;25.93;12.30;;;10.30;89.90;;;;;;4976098;28;20460;-79
2021/03/03 09:55:26;;;;;;;26.83;11.60;;;10.30;90.10;;;;;;4993730;28;20956;-79
2021/03/03 09:57:52;;;;;;;32.13;13.07;;;10.40;90.30;;;;;;4994619;28;20408;-79
2021/03/03 10:00:26;;;;;;;23.70;11.20;;;10.60;89.90;;;;;;4995115;28;20436;-79
2021/03/03 10:02:55;;;;;;;29.70;13.10;;;10.70;89.80;;;;;;4977759;28;20436;-80
2021/03/03 10:05:23;;;;;;;26.47;12.47;;;10.80;89.20;;;;;;4976845;28;20444;-79
2021/03/03 10:07:53;;;;;;;24.30;11.90;;;11.10;89.60;;;;;;4977773;28;20796;-79
2021/03/03 10:10:21;;;;;;;22.90;11.10;;;11.20;88.70;;;;;;4976804;28;20627;-79
2021/03/03 10:12:46;;;;;;;26.23;12.10;;;11.50;88.70;;;;;;4979157;28;20921;-79
2021/03/03 10:15:15;;;;;;;26.70;11.73;;;11.60;88.60;;;;;;4979060;28;20500;-80
2021/03/03 10:17:40;;;;;;;27.27;11.93;;;11.70;87.90;;;;;;4976924;28;20645;-79
2021/03/03 10:20:31;;;;;;;23.30;11.50;;;11.80;88.00;;;;;;4974656;28;20516;-80
2021/03/03 10:22:58;;;;;;;26.10;12.50;;;12.00;88.00;;;;;;4973990;28;20604;-79
2021/03/03 10:26:00;;;;;;;36.23;14.80;;;11.90;87.60;;;;;;4975262;28;20413;-80
2021/03/03 10:28:28;;;;;;;28.97;13.83;;;11.70;87.90;;;;;;4970242;28;20420;-79
2021/03/03 10:30:56;;;;;;;29.17;14.70;;;11.70;88.10;;;;;;4992020;28;20476;-80
2021/03/03 10:33:30;;;;;;;29.07;12.53;;;11.70;88.30;;;;;;4976700;28;20416;-79
2021/03/03 10:36:01;;;;;;;28.00;14.00;;;11.60;87.90;;;;;;4974701;28;20413;-77
2021/03/03 10:38:28;;;;;;;49.57;24.17;;;11.50;88.50;;;;;;4991949;28;20448;-80
2021/03/03 10:40:56;;;;;;;34.80;16.20;;;11.50;89.30;;;;;;4991793;28;20528;-79
2021/03/03 10:43:25;;;;;;;27.20;12.73;;;11.60;89.00;;;;;;4973350;28;20427;-79
2021/03/03 10:46:08;;;;;;;60.33;28.70;;;11.80;88.50;;;;;;4974411;28;20421;-79
2021/03/03 10:48:33;;;;;;;33.60;14.37;;;12.00;88.70;;;;;;4959516;28;20417;-79
2021/03/03 10:51:02;;;;;;;32.30;13.13;;;12.20;87.60;;;;;;4958759;28;20479;-79
2021/03/03 10:53:57;;;;;;;21.83;12.53;;;12.40;87.00;;;;;;4958985;28;20198;-79
2021/03/03 10:56:28;;;;;;;24.97;12.77;;;12.60;86.70;;;;;;4959021;28;20505;-79
2021/03/03 10:58:55;;;;;;;22.83;12.23;;;12.90;86.90;;;;;;4958491;28;20417;-79
2021/03/03 11:01:23;;;;;;;23.70;12.87;;;13.10;87.10;;;;;;4958155;28;20466;-79
2021/03/03 11:03:58;;;;;;;33.13;12.90;;;13.20;85.80;;;;;;4975469;28;20469;-79
2021/03/03 11:06:33;;;;;;;23.50;12.10;;;13.10;85.60;;;;;;4958066;28;20572;-79
2021/03/03 11:08:59;;;;;;;28.83;13.40;;;13.10;85.80;;;;;;4958246;28;20424;-78
2021/03/03 11:11:25;;;;;;;30.33;13.20;;;13.30;85.70;;;;;;4957930;28;21074;-79
2021/03/03 11:13:53;;;;;;;26.37;12.70;;;13.50;86.40;;;;;;4975413;28;20424;-79
2021/03/03 11:16:19;;;;;;;23.30;11.50;;;13.70;84.80;;;;;;4975345;28;20413;-79
2021/03/03 11:18:44;;;;;;;27.40;13.83;;;13.70;84.70;;;;;;4975192;28;20532;-79
2021/03/03 11:21:10;;;;;;;24.33;12.50;;;13.70;84.70;;;;;;4957685;28;20196;-79
2021/03/03 11:23:36;;;;;;;33.40;16.47;;;13.50;84.80;;;;;;4958559;28;20237;-79
2021/03/03 11:26:01;;;;;;;23.70;12.57;;;13.50;85.20;;;;;;4976044;28;20667;-80
2021/03/03 11:28:27;;;;;;;30.30;13.23;;;13.40;85.30;;;;;;4976268;28;20185;-79
2021/03/03 11:30:53;;;;;;;36.80;17.57;;;13.50;85.80;;;;;;4958839;28;20253;-80
2021/03/03 11:33:19;;;;;;;28.10;13.60;;;13.50;84.80;;;;;;4958710;28;20829;-79
2021/03/03 11:35:45;;;;;;;25.97;12.77;;;13.50;85.50;;;;;;4959135;28;20178;-79
2021/03/03 11:38:11;;;;;;;27.40;12.27;;;13.50;85.30;;;;;;4958253;28;20446;-78
2021/03/03 11:40:37;;;;;;;30.93;14.90;;;13.20;84.90;;;;;;4958240;28;20538;-79
2021/03/03 11:43:03;;;;;;;27.00;12.73;;;13.10;85.60;;;;;;4958772;28;20460;-79
2021/03/03 11:45:29;;;;;;;37.10;13.20;;;12.90;86.00;;;;;;4958567;28;20429;-78
2021/03/03 11:47:55;;;;;;;27.40;13.03;;;12.90;86.10;;;;;;5009429;28;20419;-80
2021/03/03 11:50:22;;;;;;;24.70;13.17;;;12.90;86.00;;;;;;4999473;28;20868;-79
2021/03/03 11:52:50;;;;;;;29.03;13.20;;;12.80;86.20;;;;;;4998246;28;20197;-79
2021/03/03 11:55:18;;;;;;;29.60;14.70;;;12.80;86.70;;;;;;4996247;28;20412;-79
2021/03/03 11:57:44;;;;;;;30.10;13.13;;;12.90;87.20;;;;;;5014032;28;20409;-79
2021/03/03 12:00:11;;;;;;;24.63;13.00;;;12.90;87.20;;;;;;4995364;28;20420;-79
2021/03/03 12:02:37;;;;;;;26.57;12.40;;;13.00;87.40;;;;;;4995703;28;20205;-79
2021/03/03 12:05:04;;;;;;;36.07;16.57;;;13.10;87.00;;;;;;5013118;28;20416;-78
2021/03/03 12:07:29;;;;;;;35.70;15.90;;;13.20;87.20;;;;;;5013618;28;20178;-79
2021/03/03 12:09:55;;;;;;;52.50;24.50;;;13.20;87.30;;;;;;4995503;28;20977;-79
2021/03/03 12:12:21;;;;;;;29.17;14.67;;;13.20;87.20;;;;;;4995690;28;20197;-79
2021/03/03 12:14:46;;;;;;;28.93;14.27;;;13.30;87.60;;;;;;4995874;28;20235;-78
2021/03/03 12:17:12;;;;;;;27.23;13.97;;;13.30;87.10;;;;;;4995704;28;20636;-79
2021/03/03 12:19:38;;;;;;;27.63;13.10;;;13.20;87.00;;;;;;5012668;28;20584;-79
2021/03/03 12:22:03;;;;;;;50.33;26.07;;;13.30;86.90;;;;;;4995553;28;20291;-79
2021/03/03 12:24:29;;;;;;;30.33;13.77;;;13.20;87.10;;;;;;4996814;28;20223;-79
2021/03/03 12:26:55;;;;;;;30.63;14.00;;;13.10;86.70;;;;;;4996786;28;20189;-79
2021/03/03 12:29:20;;;;;;;32.23;13.47;;;13.00;87.00;;;;;;4996419;28;20644;-79
2021/03/03 12:31:46;;;;;;;26.33;12.90;;;13.00;87.40;;;;;;5013858;28;20247;-79
2021/03/03 12:34:12;;;;;;;39.17;17.33;;;13.00;86.80;;;;;;5014239;28;20667;-80
2021/03/03 12:36:38;;;;;;;30.80;14.63;;;13.00;87.00;;;;;;4996261;28;20173;-80
2021/03/03 12:39:03;;;;;;;32.50;14.97;;;12.90;87.40;;;;;;5013657;28;20423;-79